sensor_id;sensor_type;location;lat;lon;timestamp;pressure;altitude;pressure_sealevel;temperature;humidity
77587;BME280;66744;49.716;17.158;2023-02-04T00:01:24;98622.78;;;4.73;76.32
77587;BME280;66744;49.716;17.158;2023-02-04T00:04:26;98626.56;;;4.65;76.50
77587;BME280;66744;49.716;17.158;2023-02-04T00:07:27;98634.56;;;4.55;76.75
77587;BME280;66744;49.716;17.158;2023-02-04T00:10:28;98643.47;;;4.55;76.74
77587;BME280;66744;49.716;17.158;2023-02-04T00:13:30;98642.03;;;4.65;76.67
77587;BME280;66744;49.716;17.158;2023-02-04T00:16:31;98641.31;;;4.68;76.74
77587;BME280;66744;49.716;17.158;2023-02-04T00:19:32;98648.63;;;4.64;76.58
77587;BME280;66744;49.716;17.158;2023-02-04T00:22:34;98647.91;;;4.70;76.64
77587;BME280;66744;49.716;17.158;2023-02-04T00:25:35;98645.63;;;4.72;76.14
77587;BME280;66744;49.716;17.158;2023-02-04T00:28:36;98646.06;;;4.74;76.34
77587;BME280;66744;49.716;17.158;2023-02-04T00:31:37;98644.13;;;4.75;76.17
77587;BME280;66744;49.716;17.158;2023-02-04T00:34:38;98651.63;;;4.85;76.00
77587;BME280;66744;49.716;17.158;2023-02-04T00:37:40;98644.00;;;4.94;76.22
77587;BME280;66744;49.716;17.158;2023-02-04T00:40:41;98645.81;;;4.87;75.94
77587;BME280;66744;49.716;17.158;2023-02-04T00:43:42;98635.84;;;4.94;76.07
77587;BME280;66744;49.716;17.158;2023-02-04T00:46:43;98655.13;;;4.89;75.90
77587;BME280;66744;49.716;17.158;2023-02-04T00:49:44;98661.31;;;4.86;75.91
77587;BME280;66744;49.716;17.158;2023-02-04T00:52:46;98651.75;;;4.96;75.38
77587;BME280;66744;49.716;17.158;2023-02-04T00:55:47;98651.69;;;4.92;75.44
77587;BME280;66744;49.716;17.158;2023-02-04T00:58:48;98645.41;;;4.85;75.90
77587;BME280;66744;49.716;17.158;2023-02-04T01:01:49;98632.53;;;4.78;76.73
77587;BME280;66744;49.716;17.158;2023-02-04T01:04:51;98629.81;;;4.78;76.74
77587;BME280;66744;49.716;17.158;2023-02-04T01:07:52;98632.97;;;4.80;76.18
77587;BME280;66744;49.716;17.158;2023-02-04T01:10:53;98640.13;;;4.95;75.75
77587;BME280;66744;49.716;17.158;2023-02-04T01:13:55;98613.72;;;4.92;75.71
77587;BME280;66744;49.716;17.158;2023-02-04T01:16:56;98607.41;;;4.81;76.33
77587;BME280;66744;49.716;17.158;2023-02-04T01:19:58;98597.41;;;4.85;76.60
77587;BME280;66744;49.716;17.158;2023-02-04T01:22:59;98591.13;;;4.81;76.56
77587;BME280;66744;49.716;17.158;2023-02-04T01:26:00;98575.69;;;4.85;76.35
77587;BME280;66744;49.716;17.158;2023-02-04T01:29:01;98596.09;;;4.75;76.43
77587;BME280;66744;49.716;17.158;2023-02-04T01:32:03;98607.97;;;4.64;77.33
77587;BME280;66744;49.716;17.158;2023-02-04T01:35:04;98596.34;;;4.63;77.63
77587;BME280;66744;49.716;17.158;2023-02-04T01:38:07;98589.72;;;4.61;77.38
77587;BME280;66744;49.716;17.158;2023-02-04T01:41:08;98600.56;;;4.61;77.34
77587;BME280;66744;49.716;17.158;2023-02-04T01:44:09;98606.47;;;4.66;77.66
77587;BME280;66744;49.716;17.158;2023-02-04T01:47:10;98590.09;;;4.59;77.45
77587;BME280;66744;49.716;17.158;2023-02-04T01:50:15;98585.03;;;4.58;78.07
77587;BME280;66744;49.716;17.158;2023-02-04T01:53:23;98580.56;;;4.43;78.89
77587;BME280;66744;49.716;17.158;2023-02-04T01:56:26;98583.06;;;4.55;78.72
77587;BME280;66744;49.716;17.158;2023-02-04T01:59:30;98572.22;;;4.55;78.72
77587;BME280;66744;49.716;17.158;2023-02-04T02:02:46;98560.56;;;4.51;79.12
77587;BME280;66744;49.716;17.158;2023-02-04T02:05:52;98577.91;;;4.46;79.57
77587;BME280;66744;49.716;17.158;2023-02-04T02:08:56;98586.91;;;4.54;78.85
77587;BME280;66744;49.716;17.158;2023-02-04T02:12:00;98583.88;;;4.59;78.21
77587;BME280;66744;49.716;17.158;2023-02-04T02:15:03;98617.50;;;4.54;79.27
77587;BME280;66744;49.716;17.158;2023-02-04T02:18:05;98623.69;;;4.29;80.94
77587;BME280;66744;49.716;17.158;2023-02-04T02:21:09;98656.00;;;4.14;81.88
77587;BME280;66744;49.716;17.158;2023-02-04T02:24:33;98651.25;;;3.85;83.92
77587;BME280;66744;49.716;17.158;2023-02-04T02:27:35;98672.72;;;3.75;83.55
77587;BME280;66744;49.716;17.158;2023-02-04T02:30:36;98691.34;;;3.57;82.40
77587;BME280;66744;49.716;17.158;2023-02-04T02:33:37;98702.09;;;3.53;82.19
77587;BME280;66744;49.716;17.158;2023-02-04T02:36:40;98709.44;;;3.34;82.75
77587;BME280;66744;49.716;17.158;2023-02-04T02:39:43;98741.41;;;3.28;82.85
77587;BME280;66744;49.716;17.158;2023-02-04T02:42:49;98742.75;;;3.38;81.41
77587;BME280;66744;49.716;17.158;2023-02-04T02:45:52;98741.59;;;3.39;81.08
77587;BME280;66744;49.716;17.158;2023-02-04T02:48:54;98758.84;;;3.31;80.33
77587;BME280;66744;49.716;17.158;2023-02-04T02:51:55;98769.84;;;3.22;79.76
77587;BME280;66744;49.716;17.158;2023-02-04T02:54:57;98763.41;;;3.27;77.95
77587;BME280;66744;49.716;17.158;2023-02-04T02:57:58;98791.09;;;3.39;74.63
77587;BME280;66744;49.716;17.158;2023-02-04T03:01:02;98790.00;;;3.44;73.19
77587;BME280;66744;49.716;17.158;2023-02-04T03:04:05;98806.03;;;3.52;72.01
77587;BME280;66744;49.716;17.158;2023-02-04T03:07:07;98804.25;;;3.41;71.71
77587;BME280;66744;49.716;17.158;2023-02-04T03:10:09;98808.81;;;3.37;71.20
77587;BME280;66744;49.716;17.158;2023-02-04T03:13:14;98808.38;;;3.35;72.08
77587;BME280;66744;49.716;17.158;2023-02-04T03:16:16;98824.25;;;3.36;71.75
77587;BME280;66744;49.716;17.158;2023-02-04T03:19:17;98826.47;;;3.50;69.99
77587;BME280;66744;49.716;17.158;2023-02-04T03:22:19;98847.78;;;3.51;71.13
77587;BME280;66744;49.716;17.158;2023-02-04T03:25:20;98848.59;;;3.36;71.92
77587;BME280;66744;49.716;17.158;2023-02-04T03:28:25;98853.16;;;3.32;72.45
77587;BME280;66744;49.716;17.158;2023-02-04T03:31:27;98866.16;;;3.11;74.21
77587;BME280;66744;49.716;17.158;2023-02-04T03:34:28;98899.31;;;2.92;75.67
77587;BME280;66744;49.716;17.158;2023-02-04T03:37:29;98909.00;;;2.93;72.28
77587;BME280;66744;49.716;17.158;2023-02-04T03:40:30;98934.38;;;3.05;71.40
77587;BME280;66744;49.716;17.158;2023-02-04T03:43:31;98966.97;;;2.96;71.31
77587;BME280;66744;49.716;17.158;2023-02-04T03:46:32;98986.25;;;2.67;72.43
77587;BME280;66744;49.716;17.158;2023-02-04T03:49:34;99006.25;;;2.50;72.65
77587;BME280;66744;49.716;17.158;2023-02-04T03:52:36;99014.53;;;2.42;73.39
77587;BME280;66744;49.716;17.158;2023-02-04T03:55:37;99044.94;;;2.14;74.33
77587;BME280;66744;49.716;17.158;2023-02-04T03:58:38;99066.91;;;1.89;75.75
77587;BME280;66744;49.716;17.158;2023-02-04T04:01:39;99063.41;;;1.76;76.27
77587;BME280;66744;49.716;17.158;2023-02-04T04:04:40;99091.28;;;1.68;77.15
77587;BME280;66744;49.716;17.158;2023-02-04T04:07:42;99114.34;;;1.65;76.90
77587;BME280;66744;49.716;17.158;2023-02-04T04:10:43;99117.69;;;1.62;76.89
77587;BME280;66744;49.716;17.158;2023-02-04T04:13:44;99153.25;;;1.64;75.79
77587;BME280;66744;49.716;17.158;2023-02-04T04:16:45;99168.06;;;1.70;75.82
77587;BME280;66744;49.716;17.158;2023-02-04T04:19:47;99172.31;;;1.59;75.25
77587;BME280;66744;49.716;17.158;2023-02-04T04:22:49;99199.97;;;1.56;75.57
77587;BME280;66744;49.716;17.158;2023-02-04T04:25:50;99214.03;;;1.62;74.94
77587;BME280;66744;49.716;17.158;2023-02-04T04:28:51;99227.25;;;1.55;75.51
77587;BME280;66744;49.716;17.158;2023-02-04T04:31:52;99245.63;;;1.41;75.34
77587;BME280;66744;49.716;17.158;2023-02-04T04:34:53;99248.97;;;1.38;75.37
77587;BME280;66744;49.716;17.158;2023-02-04T04:37:55;99275.56;;;1.48;75.23
77587;BME280;66744;49.716;17.158;2023-02-04T04:40:56;99282.91;;;1.39;75.17
77587;BME280;66744;49.716;17.158;2023-02-04T04:43:57;99291.72;;;1.27;75.71
77587;BME280;66744;49.716;17.158;2023-02-04T04:46:58;99303.66;;;1.26;75.80
77587;BME280;66744;49.716;17.158;2023-02-04T04:50:00;99326.56;;;1.11;76.33
77587;BME280;66744;49.716;17.158;2023-02-04T04:53:01;99337.50;;;1.15;76.27
77587;BME280;66744;49.716;17.158;2023-02-04T04:56:02;99348.75;;;1.38;73.96
77587;BME280;66744;49.716;17.158;2023-02-04T04:59:03;99361.09;;;1.18;73.69
77587;BME280;66744;49.716;17.158;2023-02-04T05:02:04;99380.09;;;1.22;73.80
77587;BME280;66744;49.716;17.158;2023-02-04T05:05:06;99390.97;;;1.34;73.05
77587;BME280;66744;49.716;17.158;2023-02-04T05:08:07;99406.59;;;1.19;73.73
77587;BME280;66744;49.716;17.158;2023-02-04T05:11:12;99415.13;;;1.22;74.32
77587;BME280;66744;49.716;17.158;2023-02-04T05:14:14;99427.28;;;1.36;74.01
77587;BME280;66744;49.716;17.158;2023-02-04T05:17:15;99444.47;;;1.23;74.45
77587;BME280;66744;49.716;17.158;2023-02-04T05:20:16;99440.75;;;1.36;73.42
77587;BME280;66744;49.716;17.158;2023-02-04T05:23:17;99464.81;;;1.41;72.71
77587;BME280;66744;49.716;17.158;2023-02-04T05:26:18;99475.03;;;1.27;73.54
77587;BME280;66744;49.716;17.158;2023-02-04T05:29:20;99487.88;;;1.30;73.27
77587;BME280;66744;49.716;17.158;2023-02-04T05:32:21;99500.72;;;1.33;73.73
77587;BME280;66744;49.716;17.158;2023-02-04T05:35:23;99508.66;;;1.30;74.17
77587;BME280;66744;49.716;17.158;2023-02-04T05:38:24;99504.50;;;1.32;73.78
77587;BME280;66744;49.716;17.158;2023-02-04T05:41:25;99521.50;;;1.24;74.26
77587;BME280;66744;49.716;17.158;2023-02-04T05:44:26;99528.47;;;1.34;73.81
77587;BME280;66744;49.716;17.158;2023-02-04T05:47:27;99530.22;;;1.30;72.91
77587;BME280;66744;49.716;17.158;2023-02-04T05:50:29;99543.22;;;1.28;72.24
77587;BME280;66744;49.716;17.158;2023-02-04T05:53:42;99567.00;;;1.34;72.10
77587;BME280;66744;49.716;17.158;2023-02-04T05:56:44;99560.38;;;1.32;71.92
77587;BME280;66744;49.716;17.158;2023-02-04T05:59:45;99580.00;;;1.32;72.14
77587;BME280;66744;49.716;17.158;2023-02-04T06:02:46;99597.00;;;1.24;71.73
77587;BME280;66744;49.716;17.158;2023-02-04T06:05:48;99616.66;;;1.25;71.13
77587;BME280;66744;49.716;17.158;2023-02-04T06:08:49;99628.22;;;1.34;70.82
77587;BME280;66744;49.716;17.158;2023-02-04T06:11:50;99644.41;;;1.42;71.46
77587;BME280;66744;49.716;17.158;2023-02-04T06:14:51;99658.50;;;1.48;70.24
77587;BME280;66744;49.716;17.158;2023-02-04T06:17:52;99688.81;;;1.45;69.14
77587;BME280;66744;49.716;17.158;2023-02-04T06:20:53;99687.66;;;1.54;68.70
77587;BME280;66744;49.716;17.158;2023-02-04T06:23:55;99709.25;;;1.54;69.00
77587;BME280;66744;49.716;17.158;2023-02-04T06:26:56;99714.00;;;1.49;67.54
77587;BME280;66744;49.716;17.158;2023-02-04T06:29:57;99741.78;;;1.49;68.08
77587;BME280;66744;49.716;17.158;2023-02-04T06:32:58;99756.22;;;1.53;68.26
77587;BME280;66744;49.716;17.158;2023-02-04T06:35:59;99769.69;;;1.28;69.29
77587;BME280;66744;49.716;17.158;2023-02-04T06:39:00;99778.41;;;0.99;71.70
77587;BME280;66744;49.716;17.158;2023-02-04T06:42:01;99779.81;;;0.96;71.24
77587;BME280;66744;49.716;17.158;2023-02-04T06:45:03;99785.38;;;1.08;71.32
77587;BME280;66744;49.716;17.158;2023-02-04T06:48:04;99793.47;;;1.08;69.81
77587;BME280;66744;49.716;17.158;2023-02-04T06:51:06;99809.03;;;1.20;70.13
77587;BME280;66744;49.716;17.158;2023-02-04T06:54:07;99800.28;;;1.06;70.79
77587;BME280;66744;49.716;17.158;2023-02-04T06:57:08;99825.03;;;1.08;70.48
77587;BME280;66744;49.716;17.158;2023-02-04T07:00:10;99834.72;;;1.17;69.93
77587;BME280;66744;49.716;17.158;2023-02-04T07:03:11;99851.19;;;1.16;69.68
77587;BME280;66744;49.716;17.158;2023-02-04T07:06:12;99849.59;;;1.06;70.27
77587;BME280;66744;49.716;17.158;2023-02-04T07:09:13;99863.22;;;1.10;70.65
77587;BME280;66744;49.716;17.158;2023-02-04T07:12:15;99882.38;;;1.00;71.55
77587;BME280;66744;49.716;17.158;2023-02-04T07:15:16;99892.47;;;0.86;71.64
77587;BME280;66744;49.716;17.158;2023-02-04T07:18:17;99897.72;;;0.82;71.93
77587;BME280;66744;49.716;17.158;2023-02-04T07:21:19;99920.66;;;0.80;71.50
77587;BME280;66744;49.716;17.158;2023-02-04T07:24:22;99922.88;;;0.78;72.34
77587;BME280;66744;49.716;17.158;2023-02-04T07:27:23;99937.63;;;0.80;72.12
77587;BME280;66744;49.716;17.158;2023-02-04T07:30:24;99928.00;;;0.88;70.45
77587;BME280;66744;49.716;17.158;2023-02-04T07:33:25;99947.38;;;0.98;69.07
77587;BME280;66744;49.716;17.158;2023-02-04T07:36:26;99963.75;;;1.10;67.79
77587;BME280;66744;49.716;17.158;2023-02-04T07:39:28;99985.53;;;1.23;67.35
77587;BME280;66744;49.716;17.158;2023-02-04T07:42:29;99979.91;;;1.41;63.70
77587;BME280;66744;49.716;17.158;2023-02-04T07:45:38;99999.59;;;1.11;65.28
77587;BME280;66744;49.716;17.158;2023-02-04T07:48:39;100006.44;;;1.17;64.93
77587;BME280;66744;49.716;17.158;2023-02-04T07:51:41;100029.25;;;1.11;64.93
77587;BME280;66744;49.716;17.158;2023-02-04T07:54:42;100029.13;;;1.16;64.11
77587;BME280;66744;49.716;17.158;2023-02-04T07:57:43;100040.78;;;1.03;65.03
77587;BME280;66744;49.716;17.158;2023-02-04T08:00:44;100043.22;;;1.13;64.40
77587;BME280;66744;49.716;17.158;2023-02-04T08:03:45;100061.53;;;1.02;64.57
77587;BME280;66744;49.716;17.158;2023-02-04T08:06:46;100069.00;;;1.05;64.38
77587;BME280;66744;49.716;17.158;2023-02-04T08:09:47;100071.28;;;1.12;63.18
77587;BME280;66744;49.716;17.158;2023-02-04T08:12:48;100086.78;;;1.06;64.04
77587;BME280;66744;49.716;17.158;2023-02-04T08:15:50;100102.44;;;1.04;64.11
77587;BME280;66744;49.716;17.158;2023-02-04T08:18:52;100102.16;;;1.06;63.99
77587;BME280;66744;49.716;17.158;2023-02-04T08:21:53;100124.00;;;1.04;64.20
77587;BME280;66744;49.716;17.158;2023-02-04T08:24:55;100135.25;;;0.98;64.12
77587;BME280;66744;49.716;17.158;2023-02-04T08:27:56;100150.19;;;1.04;63.79
77587;BME280;66744;49.716;17.158;2023-02-04T08:30:57;100157.72;;;0.93;65.20
77587;BME280;66744;49.716;17.158;2023-02-04T08:33:58;100171.44;;;1.05;65.19
77587;BME280;66744;49.716;17.158;2023-02-04T08:36:59;100182.34;;;1.00;65.68
77587;BME280;66744;49.716;17.158;2023-02-04T08:40:01;100192.56;;;0.90;66.14
77587;BME280;66744;49.716;17.158;2023-02-04T08:43:02;100203.06;;;0.78;67.16
77587;BME280;66744;49.716;17.158;2023-02-04T08:46:03;100221.75;;;0.74;67.81
77587;BME280;66744;49.716;17.158;2023-02-04T08:49:04;100218.47;;;0.50;69.89
77587;BME280;66744;49.716;17.158;2023-02-04T08:52:05;100225.66;;;0.54;70.40
77587;BME280;66744;49.716;17.158;2023-02-04T08:55:09;100228.03;;;0.70;70.70
77587;BME280;66744;49.716;17.158;2023-02-04T08:58:11;100239.81;;;0.74;70.03
77587;BME280;66744;49.716;17.158;2023-02-04T09:01:13;100254.06;;;0.88;72.04
77587;BME280;66744;49.716;17.158;2023-02-04T09:04:15;100258.56;;;0.79;73.23
77587;BME280;66744;49.716;17.158;2023-02-04T09:07:16;100258.84;;;0.77;73.29
77587;BME280;66744;49.716;17.158;2023-02-04T09:10:18;100275.69;;;0.83;73.81
77587;BME280;66744;49.716;17.158;2023-02-04T09:13:19;100267.91;;;0.95;72.76
77587;BME280;66744;49.716;17.158;2023-02-04T09:16:21;100271.31;;;0.87;71.00
77587;BME280;66744;49.716;17.158;2023-02-04T09:19:23;100272.09;;;1.01;69.18
77587;BME280;66744;49.716;17.158;2023-02-04T09:22:26;100286.81;;;1.17;67.63
77587;BME280;66744;49.716;17.158;2023-02-04T09:25:27;100294.16;;;1.61;66.95
77587;BME280;66744;49.716;17.158;2023-02-04T09:28:28;100300.50;;;1.78;64.35
77587;BME280;66744;49.716;17.158;2023-02-04T09:31:29;100306.25;;;1.63;63.83
77587;BME280;66744;49.716;17.158;2023-02-04T09:34:31;100306.94;;;1.69;62.98
77587;BME280;66744;49.716;17.158;2023-02-04T09:37:32;100311.94;;;1.84;62.99
77587;BME280;66744;49.716;17.158;2023-02-04T09:40:37;100323.19;;;1.77;64.57
77587;BME280;66744;49.716;17.158;2023-02-04T09:43:43;100320.53;;;2.08;62.91
77587;BME280;66744;49.716;17.158;2023-02-04T09:46:56;100327.13;;;3.03;62.17
77587;BME280;66744;49.716;17.158;2023-02-04T09:49:58;100326.06;;;3.47;58.69
77587;BME280;66744;49.716;17.158;2023-02-04T09:53:03;100344.34;;;3.33;58.68
77587;BME280;66744;49.716;17.158;2023-02-04T09:56:08;100343.97;;;3.00;60.23
77587;BME280;66744;49.716;17.158;2023-02-04T09:59:18;100350.06;;;2.66;60.26
77587;BME280;66744;49.716;17.158;2023-02-04T10:02:25;100351.03;;;2.70;59.87
77587;BME280;66744;49.716;17.158;2023-02-04T10:05:29;100342.91;;;4.12;57.58
77587;BME280;66744;49.716;17.158;2023-02-04T10:08:32;100340.22;;;5.26;54.97
77587;BME280;66744;49.716;17.158;2023-02-04T10:11:36;100340.94;;;6.18;51.18
77587;BME280;66744;49.716;17.158;2023-02-04T10:14:39;100338.44;;;7.18;49.79
77587;BME280;66744;49.716;17.158;2023-02-04T10:17:41;100330.53;;;7.93;47.38
77587;BME280;66744;49.716;17.158;2023-02-04T10:20:42;100326.28;;;8.07;44.45
77587;BME280;66744;49.716;17.158;2023-02-04T10:23:48;100334.25;;;8.00;44.57
77587;BME280;66744;49.716;17.158;2023-02-04T10:26:52;100342.84;;;8.58;42.80
77587;BME280;66744;49.716;17.158;2023-02-04T10:33:24;100337.81;;;8.44;39.74
77587;BME280;66744;49.716;17.158;2023-02-04T10:36:27;100337.66;;;9.34;39.08
77587;BME280;66744;49.716;17.158;2023-02-04T10:42:54;100342.19;;;9.81;36.00
77587;BME280;66744;49.716;17.158;2023-02-04T10:45:58;100356.97;;;10.15;34.71
77587;BME280;66744;49.716;17.158;2023-02-04T10:49:12;100353.13;;;11.06;35.52
77587;BME280;66744;49.716;17.158;2023-02-04T10:52:19;100359.59;;;11.73;33.37
77587;BME280;66744;49.716;17.158;2023-02-04T10:55:22;100363.78;;;10.66;31.28
77587;BME280;66744;49.716;17.158;2023-02-04T10:58:29;100381.06;;;8.89;34.08
77587;BME280;66744;49.716;17.158;2023-02-04T11:01:31;100387.16;;;8.11;35.38
77587;BME280;66744;49.716;17.158;2023-02-04T11:04:33;100406.06;;;8.75;33.83
77587;BME280;66744;49.716;17.158;2023-02-04T11:07:34;100398.94;;;9.68;34.07
77587;BME280;66744;49.716;17.158;2023-02-04T11:10:36;100407.38;;;10.97;33.03
77587;BME280;66744;49.716;17.158;2023-02-04T11:16:49;100425.19;;;7.68;36.73
77587;BME280;66744;49.716;17.158;2023-02-04T11:19:51;100431.06;;;5.78;41.04
77587;BME280;66744;49.716;17.158;2023-02-04T11:22:52;100439.91;;;5.08;43.65
77587;BME280;66744;49.716;17.158;2023-02-04T11:30:16;100453.00;;;4.51;45.88
77587;BME280;66744;49.716;17.158;2023-02-04T11:33:22;100454.69;;;4.82;45.94
77587;BME280;66744;49.716;17.158;2023-02-04T11:36:24;100458.28;;;5.70;44.77
77587;BME280;66744;49.716;17.158;2023-02-04T11:39:32;100470.63;;;5.38;45.06
77587;BME280;66744;49.716;17.158;2023-02-04T11:42:39;100471.03;;;4.56;46.53
77587;BME280;66744;49.716;17.158;2023-02-04T11:45:42;100476.75;;;3.94;46.78
77587;BME280;66744;49.716;17.158;2023-02-04T11:48:43;100472.69;;;3.57;47.15
77587;BME280;66744;49.716;17.158;2023-02-04T11:51:45;100479.97;;;3.31;47.99
77587;BME280;66744;49.716;17.158;2023-02-04T11:54:54;100484.38;;;3.27;49.94
77587;BME280;66744;49.716;17.158;2023-02-04T11:57:55;100491.88;;;2.91;51.40
77587;BME280;66744;49.716;17.158;2023-02-04T12:00:57;100486.84;;;2.76;52.19
77587;BME280;66744;49.716;17.158;2023-02-04T12:04:01;100491.03;;;2.37;53.80
77587;BME280;66744;49.716;17.158;2023-02-04T12:07:03;100487.38;;;2.86;52.43
77587;BME280;66744;49.716;17.158;2023-02-04T12:10:23;100490.97;;;5.15;48.65
77587;BME280;66744;49.716;17.158;2023-02-04T12:13:26;100493.19;;;4.49;48.46
77587;BME280;66744;49.716;17.158;2023-02-04T12:16:27;100491.25;;;4.07;50.17
77587;BME280;66744;49.716;17.158;2023-02-04T12:19:28;100491.81;;;3.52;50.72
77587;BME280;66744;49.716;17.158;2023-02-04T12:22:29;100499.03;;;3.26;51.20
77587;BME280;66744;49.716;17.158;2023-02-04T12:25:31;100502.75;;;3.08;52.19
77587;BME280;66744;49.716;17.158;2023-02-04T12:28:32;100501.56;;;3.23;51.69
77587;BME280;66744;49.716;17.158;2023-02-04T12:31:33;100501.75;;;4.86;48.68
77587;BME280;66744;49.716;17.158;2023-02-04T12:34:34;100488.59;;;5.51;45.83
77587;BME280;66744;49.716;17.158;2023-02-04T12:37:35;100487.22;;;4.82;48.57
77587;BME280;66744;49.716;17.158;2023-02-04T12:40:36;100492.53;;;4.61;48.58
77587;BME280;66744;49.716;17.158;2023-02-04T12:43:39;100494.97;;;4.37;48.25
77587;BME280;66744;49.716;17.158;2023-02-04T12:46:40;100491.13;;;4.29;48.67
77587;BME280;66744;49.716;17.158;2023-02-04T12:49:43;100487.94;;;4.36;49.39
77587;BME280;66744;49.716;17.158;2023-02-04T12:52:44;100488.56;;;4.24;50.63
77587;BME280;66744;49.716;17.158;2023-02-04T12:55:45;100493.97;;;3.98;52.53
77587;BME280;66744;49.716;17.158;2023-02-04T12:58:46;100491.75;;;4.00;54.95
77587;BME280;66744;49.716;17.158;2023-02-04T13:01:49;100512.25;;;2.97;57.33
77587;BME280;66744;49.716;17.158;2023-02-04T13:04:50;100499.34;;;2.63;59.04
77587;BME280;66744;49.716;17.158;2023-02-04T13:07:51;100504.47;;;2.51;59.73
77587;BME280;66744;49.716;17.158;2023-02-04T13:10:55;100499.00;;;2.20;59.95
77587;BME280;66744;49.716;17.158;2023-02-04T13:13:56;100502.56;;;1.94;62.86
77587;BME280;66744;49.716;17.158;2023-02-04T13:16:58;100515.19;;;1.71;64.80
77587;BME280;66744;49.716;17.158;2023-02-04T13:19:59;100518.09;;;1.74;64.45
77587;BME280;66744;49.716;17.158;2023-02-04T13:23:01;100545.19;;;1.69;63.71
77587;BME280;66744;49.716;17.158;2023-02-04T13:26:02;100547.69;;;1.66;65.13
77587;BME280;66744;49.716;17.158;2023-02-04T13:29:03;100555.97;;;1.69;65.05
77587;BME280;66744;49.716;17.158;2023-02-04T13:32:04;100563.94;;;1.34;69.50
77587;BME280;66744;49.716;17.158;2023-02-04T13:35:06;100562.97;;;0.97;71.34
77587;BME280;66744;49.716;17.158;2023-02-04T13:38:08;100564.59;;;0.80;68.83
77587;BME280;66744;49.716;17.158;2023-02-04T13:41:09;100560.75;;;0.86;67.67
77587;BME280;66744;49.716;17.158;2023-02-04T13:44:10;100570.78;;;0.99;66.48
77587;BME280;66744;49.716;17.158;2023-02-04T13:47:13;100572.41;;;1.13;66.20
77587;BME280;66744;49.716;17.158;2023-02-04T13:50:17;100563.94;;;1.34;66.02
77587;BME280;66744;49.716;17.158;2023-02-04T13:53:18;100562.03;;;2.52;64.34
77587;BME280;66744;49.716;17.158;2023-02-04T13:56:19;100558.13;;;3.81;60.51
77587;BME280;66744;49.716;17.158;2023-02-04T13:59:20;100563.34;;;3.29;60.93
77587;BME280;66744;49.716;17.158;2023-02-04T14:02:21;100551.50;;;4.04;59.93
77587;BME280;66744;49.716;17.158;2023-02-04T14:05:23;100539.09;;;4.29;58.83
77587;BME280;66744;49.716;17.158;2023-02-04T14:08:25;100546.41;;;4.02;57.45
77587;BME280;66744;49.716;17.158;2023-02-04T14:11:26;100543.56;;;4.25;53.89
77587;BME280;66744;49.716;17.158;2023-02-04T14:14:27;100555.53;;;4.41;52.77
77587;BME280;66744;49.716;17.158;2023-02-04T14:17:28;100569.91;;;3.76;52.60
77587;BME280;66744;49.716;17.158;2023-02-04T14:20:30;100580.09;;;3.09;53.33
77587;BME280;66744;49.716;17.158;2023-02-04T14:23:31;100587.44;;;2.51;52.95
77587;BME280;66744;49.716;17.158;2023-02-04T14:26:32;100596.22;;;2.07;55.69
77587;BME280;66744;49.716;17.158;2023-02-04T14:29:34;100600.56;;;1.81;59.27
77587;BME280;66744;49.716;17.158;2023-02-04T14:32:36;100602.09;;;1.27;65.92
77587;BME280;66744;49.716;17.158;2023-02-04T14:35:37;100599.78;;;1.21;61.32
77587;BME280;66744;49.716;17.158;2023-02-04T14:38:39;100600.66;;;1.16;61.38
77587;BME280;66744;49.716;17.158;2023-02-04T14:41:40;100592.25;;;1.04;60.45
77587;BME280;66744;49.716;17.158;2023-02-04T14:44:41;100598.00;;;0.97;60.19
77587;BME280;66744;49.716;17.158;2023-02-04T14:47:43;100603.81;;;1.04;59.90
77587;BME280;66744;49.716;17.158;2023-02-04T14:50:44;100609.31;;;1.32;60.43
77587;BME280;66744;49.716;17.158;2023-02-04T14:53:46;100607.72;;;1.44;60.02
77587;BME280;66744;49.716;17.158;2023-02-04T14:56:47;100608.38;;;1.23;58.75
77587;BME280;66744;49.716;17.158;2023-02-04T14:59:50;100611.16;;;1.17;59.38
77587;BME280;66744;49.716;17.158;2023-02-04T15:02:51;100613.41;;;1.10;58.72
77587;BME280;66744;49.716;17.158;2023-02-04T15:05:53;100609.72;;;1.06;58.89
77587;BME280;66744;49.716;17.158;2023-02-04T15:08:54;100616.06;;;0.97;59.20
77587;BME280;66744;49.716;17.158;2023-02-04T15:11:55;100612.88;;;0.95;59.20
77587;BME280;66744;49.716;17.158;2023-02-04T15:14:56;100620.06;;;0.99;59.84
77587;BME280;66744;49.716;17.158;2023-02-04T15:17:57;100623.34;;;0.96;59.10
77587;BME280;66744;49.716;17.158;2023-02-04T15:20:58;100636.56;;;0.98;60.50
77587;BME280;66744;49.716;17.158;2023-02-04T15:23:59;100632.16;;;1.02;60.52
77587;BME280;66744;49.716;17.158;2023-02-04T15:27:00;100630.00;;;0.85;60.55
77587;BME280;66744;49.716;17.158;2023-02-04T15:30:03;100640.59;;;0.82;61.09
77587;BME280;66744;49.716;17.158;2023-02-04T15:33:04;100626.88;;;0.78;61.19
77587;BME280;66744;49.716;17.158;2023-02-04T15:36:05;100639.72;;;0.68;62.01
77587;BME280;66744;49.716;17.158;2023-02-04T15:39:07;100642.09;;;0.50;62.65
77587;BME280;66744;49.716;17.158;2023-02-04T15:42:08;100642.09;;;0.50;61.39
77587;BME280;66744;49.716;17.158;2023-02-04T15:45:11;100645.91;;;0.49;61.17
77587;BME280;66744;49.716;17.158;2023-02-04T15:48:12;100648.47;;;0.36;61.11
77587;BME280;66744;49.716;17.158;2023-02-04T15:51:13;100640.47;;;0.31;61.72
77587;BME280;66744;49.716;17.158;2023-02-04T15:54:14;100649.78;;;0.20;63.43
77587;BME280;66744;49.716;17.158;2023-02-04T15:57:15;100657.47;;;0.08;64.06
77587;BME280;66744;49.716;17.158;2023-02-04T16:00:17;100658.69;;;-0.04;64.74
77587;BME280;66744;49.716;17.158;2023-02-04T16:03:18;100655.25;;;-0.09;65.94
77587;BME280;66744;49.716;17.158;2023-02-04T16:06:19;100660.69;;;-0.14;65.72
77587;BME280;66744;49.716;17.158;2023-02-04T16:09:20;100657.47;;;-0.16;65.82
77587;BME280;66744;49.716;17.158;2023-02-04T16:12:22;100672.00;;;-0.17;65.58